createdAt,value
2018-01-01T00:00:23.048Z,10.53
2018-01-01T00:01:23.571Z,10.61
2018-01-01T00:02:23.300Z,10.68
2018-01-01T00:03:23.294Z,10.72
2018-01-01T00:04:23.279Z,10.72
2018-01-01T00:05:23.267Z,10.72
2018-01-01T00:06:23.522Z,10.76
2018-01-01T00:07:23.264Z,10.68
2018-01-01T00:08:23.252Z,10.64
2018-01-01T00:09:23.249Z,10.51
2018-01-01T00:10:23.248Z,10.51
2018-01-01T00:11:22.976Z,10.4
2018-01-01T00:12:23.254Z,10.38
2018-01-01T00:13:23.228Z,10.42
2018-01-01T00:14:22.973Z,10.28
2018-01-01T00:15:23.255Z,10.2
2018-01-01T00:16:23.485Z,10.2
2018-01-01T00:17:23.225Z,10.15
2018-01-01T00:18:23.471Z,10.13
2018-01-01T00:19:23.439Z,10.16
2018-01-01T00:20:23.202Z,10.16
2018-01-01T00:21:22.938Z,10.16
2018-01-01T00:22:23.185Z,10.09
2018-01-01T00:23:23.443Z,10.12
2018-01-01T00:24:23.434Z,10.02
2018-01-01T00:25:23.427Z,10.09
2018-01-01T00:26:23.182Z,9.99
2018-01-01T00:27:23.161Z,10.01
2018-01-01T00:28:22.908Z,9.98
2018-01-01T00:29:22.908Z,10.02
2018-01-01T00:30:22.943Z,9.98
2018-01-01T00:31:22.895Z,10.04
2018-01-01T00:32:23.399Z,9.89
2018-01-01T00:33:23.396Z,9.94
2018-01-01T00:34:23.141Z,9.89
2018-01-01T00:35:23.393Z,9.92
2018-01-01T00:36:23.125Z,9.95
2018-01-01T00:37:23.127Z,9.92
2018-01-01T00:38:23.373Z,9.91
2018-01-01T00:39:23.369Z,9.89
2018-01-01T00:40:23.138Z,9.87
2018-01-01T00:41:23.423Z,9.83
2018-01-01T00:42:22.859Z,9.89
2018-01-01T00:43:22.860Z,9.83
2018-01-01T00:44:23.389Z,9.87
2018-01-01T00:45:22.845Z,9.74
2018-01-01T00:46:23.372Z,9.77
2018-01-01T00:47:23.339Z,9.79
2018-01-01T00:48:23.118Z,9.69
2018-01-01T00:49:23.089Z,9.68
2018-01-01T00:50:23.331Z,9.69
2018-01-01T00:51:23.071Z,9.59
2018-01-01T00:52:23.064Z,9.65
2018-01-01T00:53:23.309Z,9.59
2018-01-01T00:54:23.064Z,9.61
2018-01-01T00:55:23.061Z,9.68
2018-01-01T00:56:23.057Z,9.72
2018-01-01T00:57:23.322Z,9.83
2018-01-01T00:58:22.790Z,9.94
2018-01-01T00:59:23.308Z,9.91
2018-01-01T01:00:22.780Z,10.04
2018-01-01T01:01:23.029Z,10.02
2018-01-01T01:02:23.035Z,10.04
2018-01-01T01:03:23.269Z,10.09
2018-01-01T01:04:23.030Z,10.15
2018-01-01T01:05:22.759Z,10.19
2018-01-01T01:06:22.762Z,10.15
2018-01-01T01:07:23.002Z,10.13
2018-01-01T01:08:23.257Z,10.19
2018-01-01T01:09:23.252Z,10.25
2018-01-01T01:10:23.252Z,10.22
2018-01-01T01:11:23.254Z,10.3
2018-01-01T01:12:22.985Z,10.28
2018-01-01T01:13:22.979Z,10.33
2018-01-01T01:14:22.978Z,10.25
2018-01-01T01:15:24.770Z,10.34
2018-01-01T01:16:22.735Z,10.37
2018-01-01T01:17:22.961Z,10.3
2018-01-01T01:18:22.956Z,10.31
2018-01-01T01:19:22.960Z,10.35
2018-01-01T01:20:22.956Z,10.34
2018-01-01T01:21:23.053Z,10.46
2018-01-01T01:22:22.941Z,10.38
2018-01-01T01:23:22.959Z,10.37
2018-01-01T01:24:22.697Z,10.38
2018-01-01T01:25:23.176Z,10.33
2018-01-01T01:26:22.961Z,10.31
2018-01-01T01:27:23.209Z,10.35
2018-01-01T01:28:22.672Z,10.35
2018-01-01T01:29:22.660Z,10.31
2018-01-01T01:30:22.664Z,10.31
2018-01-01T01:31:22.920Z,10.31
2018-01-01T01:32:22.897Z,10.28
2018-01-01T01:33:23.155Z,10.31
2018-01-01T01:34:23.162Z,10.23
2018-01-01T01:35:22.885Z,10.22
2018-01-01T01:36:22.885Z,10.23
2018-01-01T01:37:22.627Z,10.25
2018-01-01T01:38:22.876Z,10.28
2018-01-01T01:39:22.877Z,10.28
2018-01-01T01:40:22.865Z,10.3
2018-01-01T01:41:22.872Z,10.25
2018-01-01T01:42:22.872Z,10.25
2018-01-01T01:43:22.863Z,10.26
2018-01-01T01:44:22.856Z,10.22
2018-01-01T01:45:23.312Z,10.17
2018-01-01T01:46:23.087Z,10.19
2018-01-01T01:47:22.831Z,10.2
2018-01-01T01:48:22.834Z,10.15
2018-01-01T01:49:23.107Z,10.1
2018-01-01T01:50:22.846Z,10.13
2018-01-01T01:51:23.074Z,10.1
2018-01-01T01:52:23.076Z,10.13
2018-01-01T01:53:23.067Z,10.09
2018-01-01T01:54:22.799Z,10.09
2018-01-01T01:55:23.049Z,10.16
2018-01-01T01:56:22.794Z,10.04
2018-01-01T01:57:22.796Z,10.09
2018-01-01T01:58:23.042Z,10.07
2018-01-01T01:59:23.051Z,9.97
2018-01-01T02:00:22.861Z,9.99
2018-01-01T02:01:23.028Z,10.01
2018-01-01T02:02:22.765Z,9.94
2018-01-01T02:03:22.763Z,9.97
2018-01-01T02:04:22.519Z,9.95
2018-01-01T02:05:22.756Z,9.92
2018-01-01T02:06:22.751Z,9.91
2018-01-01T02:07:23.020Z,9.86
2018-01-01T02:08:23.003Z,9.82
2018-01-01T02:09:22.739Z,9.79
2018-01-01T02:10:22.737Z,9.82
2018-01-01T02:11:22.734Z,9.74
2018-01-01T02:12:22.995Z,9.77
2018-01-01T02:13:22.971Z,9.73
2018-01-01T02:14:22.716Z,9.68
2018-01-01T02:15:22.711Z,9.77
2018-01-01T02:16:22.702Z,9.68
2018-01-01T02:17:22.950Z,9.68
2018-01-01T02:18:22.693Z,9.68
2018-01-01T02:19:22.693Z,9.54
2018-01-01T02:20:22.699Z,9.55
2018-01-01T02:21:22.698Z,9.64
2018-01-01T02:22:22.690Z,9.47
2018-01-01T02:23:22.694Z,9.62
2018-01-01T02:24:22.664Z,9.55
2018-01-01T02:25:22.719Z,9.64
2018-01-01T02:26:22.654Z,9.51
2018-01-01T02:27:22.903Z,9.56
2018-01-01T02:28:22.898Z,9.56
2018-01-01T02:29:22.690Z,9.58
2018-01-01T02:30:23.448Z,9.5
2018-01-01T02:31:22.891Z,9.58
2018-01-01T02:32:22.638Z,9.5
2018-01-01T02:33:22.938Z,9.54
2018-01-01T02:34:22.620Z,9.55
2018-01-01T02:35:22.871Z,9.54
2018-01-01T02:36:22.380Z,9.59
2018-01-01T02:37:22.639Z,9.51
2018-01-01T02:38:22.608Z,9.54
2018-01-01T02:39:22.847Z,9.58
2018-01-01T02:40:22.844Z,9.55
2018-01-01T02:41:22.597Z,9.58
2018-01-01T02:42:22.584Z,9.58
2018-01-01T02:43:22.590Z,9.55
2018-01-01T02:44:22.574Z,9.5
2018-01-01T02:45:22.596Z,9.51
2018-01-01T02:46:22.571Z,9.59
2018-01-01T02:47:22.565Z,9.51
2018-01-01T02:48:22.556Z,9.56
2018-01-01T02:49:22.560Z,9.54
2018-01-01T02:50:23.369Z,9.46
2018-01-01T02:51:22.557Z,9.51
2018-01-01T02:52:22.792Z,9.55
2018-01-01T02:53:22.786Z,9.4
2018-01-01T02:54:22.530Z,9.41
2018-01-01T02:55:22.784Z,9.48
2018-01-01T02:56:22.516Z,9.55
2018-01-01T02:57:22.771Z,9.46
2018-01-01T02:58:22.763Z,9.44
2018-01-01T02:59:22.766Z,9.47
2018-01-01T03:00:22.781Z,9.5
2018-01-01T03:01:22.241Z,9.41
2018-01-01T03:02:22.738Z,9.48
2018-01-01T03:03:22.734Z,9.43
2018-01-01T03:04:22.742Z,9.43
2018-01-01T03:05:22.479Z,9.41
2018-01-01T03:06:22.476Z,9.47
2018-01-01T03:07:22.716Z,9.41
2018-01-01T03:08:22.469Z,9.47
2018-01-01T03:09:22.450Z,9.43
2018-01-01T03:10:22.448Z,9.46
2018-01-01T03:11:22.705Z,9.41
2018-01-01T03:12:22.452Z,9.48
2018-01-01T03:13:22.691Z,9.51
2018-01-01T03:14:22.185Z,9.43
2018-01-01T03:15:22.773Z,9.56
2018-01-01T03:16:22.427Z,9.55
2018-01-01T03:17:22.426Z,9.59
2018-01-01T03:18:22.423Z,9.55
2018-01-01T03:19:22.662Z,9.56
2018-01-01T03:20:22.149Z,9.48
2018-01-01T03:21:22.159Z,9.51
2018-01-01T03:22:22.662Z,9.54
2018-01-01T03:23:22.399Z,9.44
2018-01-01T03:24:22.635Z,9.43
2018-01-01T03:25:22.171Z,9.43
2018-01-01T03:26:22.375Z,9.44
2018-01-01T03:27:22.618Z,9.43
2018-01-01T03:28:22.372Z,9.46
2018-01-01T03:29:22.603Z,9.41
2018-01-01T03:30:22.367Z,9.5
2018-01-01T03:31:22.498Z,9.4
2018-01-01T03:32:22.595Z,9.36
2018-01-01T03:33:22.592Z,9.41
2018-01-01T03:34:22.337Z,9.37
2018-01-01T03:35:22.591Z,9.37
2018-01-01T03:36:22.329Z,9.37
2018-01-01T03:37:22.567Z,9.37
2018-01-01T03:38:22.321Z,9.46
2018-01-01T03:39:22.314Z,9.46
2018-01-01T03:40:22.298Z,9.36
2018-01-01T03:41:22.546Z,9.26
2018-01-01T03:42:22.302Z,9.28
2018-01-01T03:43:22.540Z,9.29
2018-01-01T03:44:22.281Z,9.32
2018-01-01T03:45:22.274Z,9.28
2018-01-01T03:46:22.532Z,9.26
2018-01-01T03:47:22.517Z,9.29
2018-01-01T03:48:22.263Z,9.36
2018-01-01T03:49:22.259Z,9.22
2018-01-01T03:50:22.260Z,9.31
2018-01-01T03:51:22.248Z,9.29
2018-01-01T03:52:21.991Z,9.28
2018-01-01T03:53:22.240Z,9.36
2018-01-01T03:54:22.488Z,9.28
2018-01-01T03:55:22.480Z,9.29
2018-01-01T03:56:22.225Z,9.34
2018-01-01T03:57:22.219Z,9.28
2018-01-01T03:58:22.469Z,9.32
2018-01-01T03:59:22.463Z,9.31
2018-01-01T04:00:22.211Z,9.39
2018-01-01T04:01:22.205Z,9.29
2018-01-01T04:02:21.941Z,9.31
2018-01-01T04:03:21.941Z,9.31
2018-01-01T04:04:22.182Z,9.28
2018-01-01T04:05:22.432Z,9.32
2018-01-01T04:06:22.424Z,9.29
2018-01-01T04:07:21.924Z,9.34
2018-01-01T04:08:22.176Z,9.36
2018-01-01T04:09:22.157Z,9.32
2018-01-01T04:10:22.168Z,9.34
2018-01-01T04:11:22.411Z,9.32
2018-01-01T04:12:22.146Z,9.29
2018-01-01T04:13:22.396Z,9.32
2018-01-01T04:14:22.395Z,9.29
2018-01-01T04:15:22.432Z,9.34
2018-01-01T04:16:22.123Z,9.37
2018-01-01T04:17:22.375Z,9.31
2018-01-01T04:18:21.868Z,9.29
2018-01-01T04:19:21.864Z,9.36
2018-01-01T04:20:22.370Z,9.29
2018-01-01T04:21:22.357Z,9.31
2018-01-01T04:22:22.093Z,9.32
2018-01-01T04:23:22.092Z,9.31
2018-01-01T04:24:21.832Z,9.32
2018-01-01T04:25:22.372Z,9.31
2018-01-01T04:26:22.076Z,9.32
2018-01-01T04:27:21.820Z,9.26
2018-01-01T04:28:22.065Z,9.34
2018-01-01T04:29:21.809Z,9.39
2018-01-01T04:30:21.810Z,9.34
2018-01-01T04:31:22.450Z,9.36
2018-01-01T04:32:22.047Z,9.29
2018-01-01T04:33:22.048Z,9.29
2018-01-01T04:34:22.096Z,9.31
2018-01-01T04:35:22.038Z,9.34
2018-01-01T04:36:22.827Z,9.31
2018-01-01T04:37:22.279Z,9.19
2018-01-01T04:38:21.763Z,9.19
2018-01-01T04:39:22.261Z,9.14
2018-01-01T04:40:22.332Z,9.16
2018-01-01T04:41:21.753Z,9.14
2018-01-01T04:42:21.992Z,9.14
2018-01-01T04:43:22.241Z,9.19
2018-01-01T04:44:21.984Z,9.14
2018-01-01T04:45:22.233Z,9.29
2018-01-01T04:46:21.978Z,9.23
2018-01-01T04:47:21.968Z,9.19
2018-01-01T04:48:22.225Z,9.13
2018-01-01T04:49:21.715Z,9.16
2018-01-01T04:50:22.203Z,9.19
2018-01-01T04:51:22.213Z,9.22
2018-01-01T04:52:22.201Z,9.29
2018-01-01T04:53:21.949Z,9.21
2018-01-01T04:54:21.694Z,9.13
2018-01-01T04:55:22.217Z,9.16
2018-01-01T04:56:21.675Z,9.19
2018-01-01T04:57:22.191Z,9.21
2018-01-01T04:58:22.163Z,9.19
2018-01-01T04:59:21.657Z,9.23
2018-01-01T05:00:22.160Z,9.21
2018-01-01T05:01:22.348Z,9.16
2018-01-01T05:02:21.931Z,9.19
2018-01-01T05:03:22.149Z,9.16
2018-01-01T05:04:22.151Z,9.14
2018-01-01T05:05:21.896Z,9.11
2018-01-01T05:06:22.130Z,9.08
2018-01-01T05:07:21.618Z,9.04
2018-01-01T05:08:22.113Z,9.13
2018-01-01T05:09:21.612Z,9.16
2018-01-01T05:10:21.851Z,9.1
2018-01-01T05:11:21.605Z,9.16
2018-01-01T05:12:21.893Z,9.16
2018-01-01T05:13:21.843Z,9.04
2018-01-01T05:14:21.580Z,9.1
2018-01-01T05:15:21.577Z,9.16
2018-01-01T05:16:21.835Z,9.06
2018-01-01T05:17:22.068Z,9.06
2018-01-01T05:18:21.817Z,9.08
2018-01-01T05:19:22.059Z,9.03
2018-01-01T05:20:21.804Z,9.03
2018-01-01T05:21:22.059Z,8.94
2018-01-01T05:22:21.790Z,8.94
2018-01-01T05:23:22.063Z,8.99
2018-01-01T05:24:21.788Z,8.85
2018-01-01T05:25:21.526Z,8.95
2018-01-01T05:26:22.022Z,8.88
2018-01-01T05:27:21.515Z,8.91
2018-01-01T05:28:22.013Z,8.92
2018-01-01T05:29:21.766Z,8.88
2018-01-01T05:30:22.007Z,8.88
2018-01-01T05:31:21.747Z,8.88
2018-01-01T05:32:21.995Z,8.95
2018-01-01T05:33:22.038Z,9.02
2018-01-01T05:34:21.733Z,8.91
2018-01-01T05:35:21.977Z,9
2018-01-01T05:36:21.988Z,8.97
2018-01-01T05:37:21.968Z,9.02
2018-01-01T05:38:21.962Z,8.92
2018-01-01T05:39:21.964Z,8.85
2018-01-01T05:40:21.704Z,8.91
2018-01-01T05:41:21.459Z,8.94
2018-01-01T05:42:21.940Z,8.91
2018-01-01T05:43:21.684Z,8.99
2018-01-01T05:44:21.681Z,8.87
2018-01-01T05:45:21.936Z,8.95
2018-01-01T05:46:21.672Z,8.95
2018-01-01T05:47:21.667Z,8.94
2018-01-01T05:48:21.666Z,8.97
2018-01-01T05:49:21.650Z,8.95
2018-01-01T05:50:21.901Z,8.95
2018-01-01T05:51:21.642Z,8.88
2018-01-01T05:52:21.640Z,8.84
2018-01-01T05:53:21.641Z,8.88
2018-01-01T05:54:21.641Z,8.87
2018-01-01T05:55:21.986Z,8.89
2018-01-01T05:56:21.376Z,8.88
2018-01-01T05:57:21.369Z,8.92
2018-01-01T05:58:21.610Z,8.89
2018-01-01T05:59:21.616Z,8.95
2018-01-01T06:00:21.857Z,8.92
2018-01-01T06:01:21.604Z,8.94
2018-01-01T06:02:24.241Z,8.92
2018-01-01T06:03:21.583Z,8.97
2018-01-01T06:04:21.841Z,8.94
2018-01-01T06:05:21.575Z,8.89
2018-01-01T06:06:21.576Z,8.91
2018-01-01T06:07:21.570Z,8.87
2018-01-01T06:08:21.559Z,8.91
2018-01-01T06:09:21.810Z,8.88
2018-01-01T06:10:21.631Z,8.92
2018-01-01T06:11:21.294Z,8.87
2018-01-01T06:12:21.538Z,8.87
2018-01-01T06:13:21.788Z,8.79
2018-01-01T06:14:21.522Z,8.89
2018-01-01T06:15:21.271Z,8.88
2018-01-01T06:16:21.513Z,8.89
2018-01-01T06:17:21.517Z,8.84
2018-01-01T06:18:21.513Z,8.81
2018-01-01T06:19:21.765Z,8.79
2018-01-01T06:20:21.743Z,8.67
2018-01-01T06:21:21.238Z,8.79
2018-01-01T06:22:21.234Z,8.64
2018-01-01T06:23:21.735Z,8.55
2018-01-01T06:24:21.732Z,8.58
2018-01-01T06:25:21.718Z,8.55
2018-01-01T06:26:21.476Z,8.37
2018-01-01T06:27:21.459Z,8.46
2018-01-01T06:28:21.455Z,8.41
2018-01-01T06:29:21.454Z,8.31
2018-01-01T06:30:21.451Z,8.31
2018-01-01T06:31:21.189Z,8.3
2018-01-01T06:32:22.781Z,8.27
2018-01-01T06:33:21.424Z,8.19
2018-01-01T06:34:21.671Z,8.19
2018-01-01T06:35:21.452Z,8.2
2018-01-01T06:36:21.677Z,8.15
2018-01-01T06:37:21.421Z,8.2
2018-01-01T06:38:21.405Z,8.03
2018-01-01T06:39:21.645Z,8.12
2018-01-01T06:40:21.144Z,8.08
2018-01-01T06:41:21.382Z,8.05
2018-01-01T06:42:21.132Z,8.06
2018-01-01T06:43:21.117Z,8.19
2018-01-01T06:44:21.621Z,8.19
2018-01-01T06:45:21.618Z,8.16
2018-01-01T06:46:21.352Z,8.08
2018-01-01T06:47:21.622Z,8.12
2018-01-01T06:48:21.341Z,8.15
2018-01-01T06:49:21.588Z,8.19
2018-01-01T06:50:21.333Z,8.05
2018-01-01T06:51:21.584Z,8.09
2018-01-01T06:52:21.330Z,8.01
2018-01-01T06:53:21.616Z,8.08
2018-01-01T06:54:21.569Z,8.01
2018-01-01T06:55:21.334Z,8.08
2018-01-01T06:56:21.320Z,8.1
2018-01-01T06:57:21.537Z,8.03
2018-01-01T06:58:21.534Z,7.95
2018-01-01T06:59:21.543Z,8.05
2018-01-01T07:00:21.532Z,8.06
2018-01-01T07:01:21.533Z,7.93
2018-01-01T07:02:23.862Z,7.94
2018-01-01T07:03:21.033Z,8.01
2018-01-01T07:04:21.264Z,7.94
2018-01-01T07:05:21.526Z,7.95
2018-01-01T07:06:21.483Z,7.88
2018-01-01T07:07:21.488Z,7.9
2018-01-01T07:08:21.486Z,7.91
2018-01-01T07:09:21.230Z,7.93
2018-01-01T07:10:20.962Z,7.97
2018-01-01T07:11:21.461Z,7.85
2018-01-01T07:12:20.956Z,7.82
2018-01-01T07:13:21.441Z,7.95
2018-01-01T07:14:21.442Z,7.91
2018-01-01T07:15:21.493Z,7.94
2018-01-01T07:16:20.921Z,7.88
2018-01-01T07:17:21.173Z,7.82
2018-01-01T07:18:21.414Z,7.76
2018-01-01T07:19:20.904Z,7.79
2018-01-01T07:20:21.411Z,7.82
2018-01-01T07:21:21.150Z,7.8
2018-01-01T07:22:21.396Z,7.76
2018-01-01T07:23:20.879Z,7.72
2018-01-01T07:24:21.392Z,7.82
2018-01-01T07:25:21.125Z,7.79
2018-01-01T07:26:21.125Z,7.73
2018-01-01T07:27:21.156Z,7.79
2018-01-01T07:28:20.862Z,7.82
2018-01-01T07:29:21.355Z,7.82
2018-01-01T07:30:21.357Z,7.82
2018-01-01T07:31:21.086Z,7.88
2018-01-01T07:32:21.079Z,7.91
2018-01-01T07:33:20.820Z,7.91
2018-01-01T07:34:21.069Z,7.94
2018-01-01T07:35:21.105Z,7.98
2018-01-01T07:36:21.309Z,7.91
2018-01-01T07:37:21.050Z,8
2018-01-01T07:38:21.298Z,8
2018-01-01T07:39:21.033Z,7.94
2018-01-01T07:40:21.042Z,7.95
2018-01-01T07:41:21.285Z,7.97
2018-01-01T07:42:20.765Z,7.93
2018-01-01T07:43:21.262Z,7.91
2018-01-01T07:44:21.011Z,7.93
2018-01-01T07:45:21.250Z,7.9
2018-01-01T07:46:20.997Z,7.91
2018-01-01T07:47:21.240Z,7.97
2018-01-01T07:48:20.728Z,7.95
2018-01-01T07:49:20.975Z,7.95
2018-01-01T07:50:20.716Z,7.93
2018-01-01T07:51:20.719Z,7.95
2018-01-01T07:52:21.217Z,7.93
2018-01-01T07:53:20.947Z,7.95
2018-01-01T07:54:20.949Z,7.91
2018-01-01T07:55:21.020Z,7.91
2018-01-01T07:56:20.932Z,7.95
2018-01-01T07:57:21.175Z,7.94
2018-01-01T07:58:20.923Z,7.83
2018-01-01T07:59:21.178Z,7.95
2018-01-01T08:00:20.926Z,7.88
2018-01-01T08:01:20.904Z,7.87
2018-01-01T08:02:20.653Z,7.91
2018-01-01T08:03:21.952Z,7.91
2018-01-01T08:04:21.148Z,7.94
2018-01-01T08:05:20.921Z,7.91
2018-01-01T08:06:20.880Z,7.83
2018-01-01T08:07:20.611Z,7.83
2018-01-01T08:08:21.118Z,7.87
2018-01-01T08:09:21.118Z,7.82
2018-01-01T08:10:21.106Z,7.87
2018-01-01T08:11:21.107Z,7.83
2018-01-01T08:12:20.837Z,7.77
2018-01-01T08:13:21.090Z,7.77
2018-01-01T08:14:21.086Z,7.76
2018-01-01T08:15:21.143Z,7.8
2018-01-01T08:16:20.825Z,7.73
2018-01-01T08:17:20.804Z,7.82
2018-01-01T08:18:20.546Z,7.77
2018-01-01T08:19:20.832Z,7.8
2018-01-01T08:20:20.798Z,7.7
2018-01-01T08:21:20.797Z,7.79
2018-01-01T08:22:21.023Z,7.8
2018-01-01T08:23:20.772Z,7.8
2018-01-01T08:24:20.764Z,7.72
2018-01-01T08:25:20.769Z,7.72
2018-01-01T08:26:21.002Z,7.79
2018-01-01T08:27:21.000Z,7.67
2018-01-01T08:28:20.735Z,7.79
2018-01-01T08:29:20.729Z,7.7
2018-01-01T08:30:20.726Z,7.77
2018-01-01T08:31:20.968Z,7.67
2018-01-01T08:32:20.722Z,7.73
2018-01-01T08:33:21.964Z,7.72
2018-01-01T08:34:20.968Z,7.61
2018-01-01T08:35:20.707Z,7.73
2018-01-01T08:37:20.987Z,7.83
2018-01-01T08:38:20.929Z,7.8
2018-01-01T08:39:20.678Z,7.85
2018-01-01T08:40:21.086Z,7.88
2018-01-01T08:41:20.662Z,7.9
2018-01-01T08:42:20.657Z,7.94
2018-01-01T08:43:20.900Z,7.87
2018-01-01T08:44:20.642Z,7.85
2018-01-01T08:45:20.385Z,7.95
2018-01-01T08:46:20.645Z,7.93
2018-01-01T08:47:20.621Z,7.93
2018-01-01T08:48:20.876Z,7.97
2018-01-01T08:49:20.611Z,7.98
2018-01-01T08:50:20.616Z,7.98
2018-01-01T08:51:20.855Z,7.95
2018-01-01T08:52:20.608Z,8
2018-01-01T08:53:20.845Z,8
2018-01-01T08:54:20.841Z,8.06
2018-01-01T08:55:20.899Z,8.01
2018-01-01T08:56:20.823Z,8.03
2018-01-01T08:57:20.815Z,8.05
2018-01-01T08:58:20.572Z,8.01
2018-01-01T08:59:20.805Z,8.08
2018-01-01T09:00:21.189Z,8.1
2018-01-01T09:01:20.543Z,8.01
2018-01-01T09:02:20.547Z,8.19
2018-01-01T09:03:23.188Z,8.19
2018-01-01T09:04:20.776Z,8.18
2018-01-01T09:05:20.522Z,8.16
2018-01-01T09:06:20.765Z,8.26
2018-01-01T09:07:20.766Z,8.23
2018-01-01T09:08:20.759Z,8.2
2018-01-01T09:09:20.517Z,8.31
2018-01-01T09:10:20.493Z,8.23
2018-01-01T09:11:20.744Z,8.36
2018-01-01T09:12:20.738Z,8.3
2018-01-01T09:13:20.733Z,8.34
2018-01-01T09:14:20.726Z,8.28
2018-01-01T09:15:20.760Z,8.42
2018-01-01T09:16:20.465Z,8.36
2018-01-01T09:17:20.743Z,8.44
2018-01-01T09:18:20.201Z,8.46
2018-01-01T09:19:20.453Z,8.41
2018-01-01T09:20:20.702Z,8.53
2018-01-01T09:21:20.693Z,8.53
2018-01-01T09:22:20.432Z,8.63
2018-01-01T09:23:20.674Z,8.56
2018-01-01T09:24:20.669Z,8.52
2018-01-01T09:25:20.430Z,8.63
2018-01-01T09:26:20.411Z,8.63
2018-01-01T09:27:20.663Z,8.6
2018-01-01T09:28:20.680Z,8.61
2018-01-01T09:29:22.246Z,8.64
2018-01-01T09:30:20.450Z,8.6
2018-01-01T09:31:20.634Z,8.55
2018-01-01T09:32:20.384Z,8.61
2018-01-01T09:33:20.375Z,8.56
2018-01-01T09:34:20.371Z,8.58
2018-01-01T09:35:20.305Z,8.58
2018-01-01T09:36:20.358Z,8.61
2018-01-01T09:37:20.354Z,8.6
2018-01-01T09:38:20.095Z,8.53
2018-01-01T09:39:20.338Z,8.61
2018-01-01T09:40:20.509Z,8.6
2018-01-01T09:41:20.586Z,8.6
2018-01-01T09:42:20.068Z,8.66
2018-01-01T09:43:20.064Z,8.64
2018-01-01T09:44:20.066Z,8.64
2018-01-01T09:45:20.561Z,8.58
2018-01-01T09:46:20.560Z,8.67
2018-01-01T09:47:20.298Z,8.69
2018-01-01T09:48:20.291Z,8.71
2018-01-01T09:49:20.294Z,8.74
2018-01-01T09:50:20.283Z,8.82
2018-01-01T09:51:20.542Z,8.71
2018-01-01T09:52:20.534Z,8.73
2018-01-01T09:53:20.267Z,8.67
2018-01-01T09:54:20.261Z,8.74
2018-01-01T09:55:20.258Z,8.79
2018-01-01T09:56:20.251Z,8.84
2018-01-01T09:57:20.504Z,8.78
2018-01-01T09:58:20.492Z,8.85
2018-01-01T09:59:20.238Z,8.87
2018-01-01T10:00:20.238Z,8.87
2018-01-01T10:01:20.238Z,8.92
2018-01-01T10:02:20.476Z,9.02
2018-01-01T10:03:20.471Z,9.03
2018-01-01T10:04:20.261Z,9.08
2018-01-01T10:05:20.208Z,9.16
2018-01-01T10:06:20.458Z,9.13
2018-01-01T10:07:20.197Z,9.31
2018-01-01T10:08:20.191Z,9.32
2018-01-01T10:09:20.437Z,9.36
2018-01-01T10:10:20.522Z,9.37
2018-01-01T10:11:20.177Z,9.46
2018-01-01T10:12:20.184Z,9.4
2018-01-01T10:13:20.424Z,9.41
2018-01-01T10:14:20.439Z,9.41
2018-01-01T10:15:19.904Z,9.41
2018-01-01T10:16:20.414Z,9.4
2018-01-01T10:17:20.148Z,9.44
2018-01-01T10:18:19.893Z,9.4
2018-01-01T10:19:20.397Z,9.47
2018-01-01T10:20:19.887Z,9.48
2018-01-01T10:21:20.137Z,9.44
2018-01-01T10:22:20.379Z,9.48
2018-01-01T10:52:41.317Z,9.62
2018-01-01T10:53:39.407Z,9.65
2018-01-01T10:54:39.648Z,9.68
2018-01-01T10:55:39.642Z,9.61
2018-01-01T10:56:39.376Z,9.58
2018-01-01T10:57:39.872Z,9.55
2018-01-01T10:58:39.857Z,9.5
2018-01-01T10:59:39.351Z,9.56
2018-01-01T11:00:39.844Z,9.55
2018-01-01T11:01:39.838Z,9.66
2018-01-01T11:02:39.578Z,9.54
2018-01-01T11:03:39.635Z,9.58
2018-01-01T11:04:39.849Z,9.55
2018-01-01T11:05:39.857Z,9.59
2018-01-01T11:06:39.328Z,9.64
2018-01-01T11:07:39.809Z,9.62
2018-01-01T11:08:39.556Z,9.62
2018-01-01T11:09:39.795Z,9.65
2018-01-01T11:10:39.553Z,9.72
2018-01-01T11:11:39.535Z,9.73
2018-01-01T11:12:39.536Z,9.74
2018-01-01T11:13:39.771Z,9.77
2018-01-01T11:14:39.267Z,9.86
2018-01-01T11:15:39.770Z,9.77
2018-01-01T11:16:39.809Z,9.86
2018-01-01T11:17:39.765Z,9.83
2018-01-01T11:18:39.517Z,9.84
2018-01-01T11:19:39.769Z,9.91
2018-01-01T11:20:39.745Z,9.87
2018-01-01T11:21:39.735Z,9.92
2018-01-01T11:22:43.231Z,9.91
2018-01-01T11:23:39.729Z,9.98
2018-01-01T11:24:39.474Z,9.97
2018-01-01T11:25:39.467Z,9.98
2018-01-01T11:26:39.463Z,10.04
2018-01-01T11:27:39.721Z,10.05
2018-01-01T11:28:39.709Z,9.97
2018-01-01T11:29:39.721Z,9.95
2018-01-01T11:30:39.450Z,9.98
2018-01-01T11:31:39.441Z,9.98
2018-01-01T11:32:39.688Z,10.04
2018-01-01T11:33:39.189Z,9.99
2018-01-01T11:34:39.439Z,9.97
2018-01-01T11:35:39.679Z,10.05
2018-01-01T11:36:39.431Z,10.12
2018-01-01T11:37:39.423Z,10.07
2018-01-01T11:38:39.668Z,10.15
2018-01-01T11:39:39.440Z,10.1
2018-01-01T11:40:39.410Z,10.19
2018-01-01T11:41:39.414Z,10.13
2018-01-01T11:42:39.184Z,10.12
2018-01-01T11:43:39.422Z,10.15
2018-01-01T11:44:39.414Z,10.17
2018-01-01T11:45:39.403Z,10.16
2018-01-01T11:46:39.633Z,10.09
2018-01-01T11:47:39.630Z,10.23
2018-01-01T11:48:39.404Z,10.22
2018-01-01T11:49:39.621Z,10.23
2018-01-01T11:50:39.409Z,10.25
2018-01-01T11:51:39.135Z,10.26
2018-01-01T11:52:39.372Z,10.13
2018-01-01T11:53:39.604Z,10.07
2018-01-01T11:54:39.350Z,9.99
2018-01-01T11:55:39.398Z,9.99
2018-01-01T11:56:39.621Z,10.01
2018-01-01T11:57:39.670Z,9.87
2018-01-01T11:58:39.345Z,9.86
2018-01-01T11:59:39.598Z,9.95
2018-01-01T12:00:39.579Z,9.89
2018-01-01T12:01:39.316Z,9.95
2018-01-01T12:02:39.099Z,9.91
2018-01-01T12:03:39.061Z,9.94
2018-01-01T12:04:39.308Z,9.87
2018-01-01T12:05:39.325Z,9.91
2018-01-01T12:06:39.324Z,9.89
2018-01-01T12:07:39.311Z,9.86
2018-01-01T12:08:39.325Z,9.92
2018-01-01T12:09:39.308Z,9.84
2018-01-01T12:10:39.029Z,9.87
2018-01-01T12:11:39.554Z,9.87
2018-01-01T12:12:39.034Z,9.97
2018-01-01T12:13:39.266Z,10.04
2018-01-01T12:14:39.559Z,9.99
2018-01-01T12:15:39.317Z,9.98
2018-01-01T12:16:39.272Z,10.09
2018-01-01T12:17:39.556Z,10.04
2018-01-01T12:18:39.030Z,10.09
2018-01-01T12:19:39.272Z,10.04
2018-01-01T12:20:39.518Z,10.07
2018-01-01T12:21:39.562Z,10.12
2018-01-01T12:22:39.310Z,10.07
2018-01-01T12:23:39.268Z,10.09
2018-01-01T12:24:39.256Z,9.95
2018-01-01T12:25:39.236Z,10.09
2018-01-01T12:26:39.496Z,10.15
2018-01-01T12:27:39.462Z,10.04
2018-01-01T12:28:39.516Z,9.99
2018-01-01T12:29:39.475Z,10.02
2018-01-01T12:30:39.209Z,9.97
2018-01-01T12:31:39.224Z,9.99
2018-01-01T12:32:39.223Z,9.95
2018-01-01T12:33:39.195Z,10.1
2018-01-01T12:34:38.969Z,10.09
2018-01-01T12:35:39.214Z,10.1
2018-01-01T12:36:38.962Z,10.05
2018-01-01T12:37:38.944Z,10.05
2018-01-01T12:38:39.215Z,10.05
2018-01-01T12:39:39.212Z,10.1
2018-01-01T12:40:39.176Z,10.1
2018-01-01T12:41:39.433Z,10.15
2018-01-01T12:42:39.201Z,10.04
2018-01-01T12:43:39.420Z,10.01
2018-01-01T12:44:39.435Z,9.99
2018-01-01T12:45:39.443Z,10.01
2018-01-01T12:46:39.170Z,9.98
2018-01-01T12:47:39.381Z,9.97
2018-01-01T12:48:39.168Z,10.02
2018-01-01T12:49:39.406Z,9.99
2018-01-01T12:50:39.131Z,9.98
2018-01-01T12:51:39.417Z,10.02
2018-01-01T12:52:39.378Z,9.98
2018-01-01T12:53:39.426Z,10.09
2018-01-01T12:54:39.140Z,10.05
2018-01-01T12:55:39.375Z,10.07
2018-01-01T12:56:39.355Z,10.16
2018-01-01T12:57:39.342Z,10.2
2018-01-01T12:58:39.112Z,10.12
2018-01-01T12:59:39.099Z,10.2
2018-01-01T13:00:39.359Z,10.23
2018-01-01T13:01:39.379Z,10.19
2018-01-01T13:02:39.090Z,10.26
2018-01-01T13:03:38.824Z,10.31
2018-01-01T13:04:39.086Z,10.42
2018-01-01T13:05:39.065Z,10.49
2018-01-01T13:06:39.346Z,10.41
2018-01-01T13:07:38.832Z,10.46
2018-01-01T13:08:38.801Z,10.48
2018-01-01T13:09:39.286Z,10.41
2018-01-01T13:10:39.319Z,10.4
2018-01-01T13:11:38.776Z,10.38
2018-01-01T13:12:39.053Z,10.44
2018-01-01T13:13:39.293Z,10.44
2018-01-01T13:14:39.058Z,10.51
2018-01-01T13:15:39.061Z,10.54
2018-01-01T13:16:39.316Z,10.46
2018-01-01T13:17:39.004Z,10.63
2018-01-01T13:18:38.765Z,10.44
2018-01-01T13:19:39.015Z,10.44
2018-01-01T13:20:39.024Z,10.35
2018-01-01T13:21:39.274Z,10.3
2018-01-01T13:22:38.770Z,10.31
2018-01-01T13:23:39.971Z,10.34
2018-01-01T13:24:38.993Z,10.28
2018-01-01T13:25:38.738Z,10.28
2018-01-01T13:26:39.255Z,10.26
2018-01-01T13:27:38.994Z,10.28
2018-01-01T13:28:39.264Z,10.28
2018-01-01T13:29:38.991Z,10.28
2018-01-01T13:30:38.753Z,10.23
2018-01-01T13:31:38.750Z,10.28
2018-01-01T13:32:39.248Z,10.23
2018-01-01T13:33:39.257Z,10.25
2018-01-01T13:34:39.239Z,10.17
2018-01-01T13:35:39.246Z,10.26
2018-01-01T13:36:39.232Z,10.19
2018-01-01T13:37:38.989Z,10.16
2018-01-01T13:38:39.234Z,10.19
2018-01-01T13:39:38.715Z,10.22
2018-01-01T13:40:39.222Z,10.16
2018-01-01T13:41:38.960Z,10.31
2018-01-01T13:42:38.947Z,10.09
2018-01-01T13:43:39.210Z,10.25
2018-01-01T13:44:39.206Z,10.19